createdAt,value
2023-04-28T00:00:18.277Z,8.90
2023-04-28T00:05:23.138Z,8.90
2023-04-28T00:10:28.036Z,8.80
2023-04-28T00:15:31.712Z,8.70
2023-04-28T00:20:35.038Z,8.70
2023-04-28T00:25:39.992Z,8.60
2023-04-28T00:30:43.308Z,8.50
2023-04-28T00:35:46.827Z,8.50
2023-04-28T00:40:51.559Z,8.50
2023-04-28T00:45:55.200Z,8.50
2023-04-28T00:50:58.602Z,8.50
2023-04-28T00:56:04.108Z,8.50
2023-04-28T01:01:09.876Z,8.50
2023-04-28T01:06:14.080Z,8.50
2023-04-28T01:11:18.964Z,8.60
2023-04-28T01:16:45.369Z,8.60
2023-04-28T01:21:48.831Z,8.50
2023-04-28T01:26:57.763Z,8.50
2023-04-28T01:32:01.371Z,8.50
2023-04-28T01:37:04.950Z,8.30
2023-04-28T01:42:09.881Z,8.20
2023-04-28T01:47:13.592Z,8.10
2023-04-28T01:52:16.968Z,8.20
2023-04-28T01:57:22.504Z,8.20
2023-04-28T02:02:28.303Z,8.20
2023-04-28T02:07:31.842Z,8.30
2023-04-28T02:12:36.700Z,8.30
2023-04-28T02:17:40.282Z,8.20
2023-04-28T02:22:43.831Z,8.30
2023-04-28T02:27:48.610Z,8.30
2023-04-28T02:32:52.131Z,8.10
2023-04-28T02:37:55.571Z,8.00
2023-04-28T02:43:00.696Z,8.00
2023-04-28T02:48:04.762Z,8.00
2023-04-28T02:53:08.459Z,8.00
2023-04-28T02:58:13.442Z,8.00
2023-04-28T03:03:17.137Z,7.90
2023-04-28T03:08:21.379Z,8.10
2023-04-28T03:13:27.318Z,8.10
2023-04-28T03:18:31.371Z,8.00
2023-04-28T03:23:35.345Z,8.10
2023-04-28T03:28:40.544Z,8.10
2023-04-28T03:33:45.665Z,8.20
2023-04-28T03:38:49.723Z,8.20
2023-04-28T03:43:56.802Z,8.20
2023-04-28T03:49:08.524Z,8.10
2023-04-28T03:54:12.541Z,4.90
2023-04-28T03:59:18.074Z,8.10
2023-04-28T04:04:21.862Z,8.10
2023-04-28T04:09:25.911Z,8.10
2023-04-28T04:14:33.475Z,8.00
2023-04-28T04:19:37.306Z,8.00
2023-04-28T04:24:43.569Z,8.10
2023-04-28T04:29:49.189Z,8.20
2023-04-28T04:34:52.996Z,8.30
2023-04-28T04:39:57.018Z,8.30
2023-04-28T04:45:01.995Z,8.30
2023-04-28T04:50:08.360Z,6.00
2023-04-28T04:55:13.609Z,8.40
2023-04-28T05:00:21.235Z,8.40
2023-04-28T05:05:25.276Z,8.50
2023-04-28T05:10:41.625Z,8.40
2023-04-28T05:15:47.308Z,9.70
2023-04-28T05:21:03.483Z,8.60
2023-04-28T05:26:07.285Z,8.70
2023-04-28T05:31:13.375Z,8.60
2023-04-28T05:36:17.306Z,8.80
2023-04-28T05:41:22.811Z,8.90
2023-04-28T05:46:30.965Z,9.00
2023-04-28T05:51:36.279Z,9.10
2023-04-28T05:56:39.982Z,9.20
2023-04-28T06:01:46.331Z,9.20
2023-04-28T06:06:50.514Z,9.40
2023-04-28T06:11:53.954Z,9.70
2023-04-28T06:16:58.758Z,9.60
2023-04-28T06:22:02.177Z,9.60
2023-04-28T06:27:07.132Z,9.60
2023-04-28T06:32:11.806Z,9.60
2023-04-28T06:37:15.720Z,9.50
2023-04-28T06:42:20.495Z,9.60
2023-04-28T06:47:39.590Z,9.70
2023-04-28T06:52:45.715Z,9.80
2023-04-28T06:57:49.227Z,9.80
2023-04-28T07:02:54.912Z,9.90
2023-04-28T07:07:58.782Z,10.00
2023-04-28T07:13:03.011Z,10.00
2023-04-28T07:18:08.261Z,10.10
2023-04-28T07:23:11.730Z,10.20
2023-04-28T07:28:15.177Z,10.40
2023-04-28T07:33:20.162Z,10.70
2023-04-28T07:38:23.543Z,12.20
2023-04-28T07:43:27.005Z,10.20
2023-04-28T07:48:32.585Z,10.00
2023-04-28T07:53:36.485Z,10.10
2023-04-28T07:58:42.166Z,10.10
2023-04-28T08:03:48.082Z,9.90
2023-04-28T08:08:53.631Z,9.80
2023-04-28T08:14:01.294Z,10.00
2023-04-28T08:19:06.272Z,9.80
2023-04-28T08:24:10.908Z,9.70
2023-04-28T08:29:14.312Z,10.00
2023-04-28T08:34:19.131Z,10.20
2023-04-28T08:39:23.671Z,10.10
2023-04-28T08:44:27.174Z,10.00
2023-04-28T08:49:37.262Z,10.00
2023-04-28T08:54:41.805Z,10.00
2023-04-28T08:59:47.246Z,10.20
2023-04-28T09:04:52.334Z,10.20
2023-04-28T09:10:21.515Z,10.30
2023-04-28T09:15:31.846Z,10.20
2023-04-28T09:20:38.385Z,10.30
2023-04-28T09:25:41.824Z,10.40
2023-04-28T09:30:45.121Z,10.30
2023-04-28T09:35:49.948Z,10.30
2023-04-28T09:40:55.610Z,10.20
2023-04-28T09:46:00.812Z,10.30
2023-04-28T09:51:07.913Z,10.50
2023-04-28T09:56:11.947Z,10.50
2023-04-28T10:01:15.856Z,10.40
2023-04-28T10:06:20.934Z,10.20
2023-04-28T10:11:25.342Z,10.30
2023-04-28T10:16:32.742Z,11.90
2023-04-28T10:21:49.460Z,10.20
2023-04-28T10:27:05.421Z,10.30
2023-04-28T10:32:23.571Z,10.10
2023-04-28T10:37:56.686Z,10.20
2023-04-28T10:43:01.603Z,10.20
2023-04-28T10:48:06.461Z,10.10
2023-04-28T10:53:10.051Z,10.10
2023-04-28T10:58:37.721Z,10.10
2023-04-28T11:03:51.265Z,10.20
2023-04-28T11:08:56.910Z,10.10
2023-04-28T11:14:36.016Z,10.30
2023-04-28T11:19:41.766Z,8.80
2023-04-28T11:24:58.109Z,10.50
2023-04-28T11:30:02.889Z,10.50
2023-04-28T11:35:09.866Z,10.60
2023-04-28T11:40:17.645Z,10.60
2023-04-28T11:45:26.543Z,10.80
2023-04-28T11:50:37.513Z,10.90
2023-04-28T11:55:40.841Z,10.90
2023-04-28T12:00:46.180Z,10.90
2023-04-28T12:05:49.682Z,10.70
2023-04-28T12:11:12.856Z,10.80
2023-04-28T12:16:45.096Z,11.10
2023-04-28T12:22:02.122Z,11.10
2023-04-28T12:27:21.764Z,10.80
2023-04-28T12:32:40.809Z,11.10
2023-04-28T12:37:44.930Z,11.20
2023-04-28T12:42:49.132Z,11.40
2023-04-28T12:47:53.947Z,11.40
2023-04-28T12:52:57.972Z,11.50
2023-04-28T12:58:01.318Z,11.70
2023-04-28T13:03:06.545Z,11.60
2023-04-28T13:08:11.205Z,11.80
2023-04-28T13:13:14.600Z,11.90
2023-04-28T13:18:19.418Z,11.80
2023-04-28T13:23:22.855Z,11.90
2023-04-28T13:28:26.199Z,12.10
2023-04-28T13:33:31.557Z,12.10
2023-04-28T13:38:34.848Z,12.00
2023-04-28T13:43:38.161Z,12.00
2023-04-28T13:48:43.010Z,12.20
2023-04-28T13:53:46.735Z,12.40
2023-04-28T13:58:50.062Z,12.20
2023-04-28T14:03:54.906Z,12.10
2023-04-28T14:08:59.419Z,12.40
2023-04-28T14:14:02.897Z,12.70
2023-04-28T14:19:08.581Z,13.00
2023-04-28T14:24:11.989Z,12.60
2023-04-28T14:29:15.449Z,12.50
2023-04-28T14:34:20.257Z,12.40
2023-04-28T14:39:24.258Z,12.30
2023-04-28T14:44:27.561Z,12.50
2023-04-28T14:49:32.559Z,12.50
2023-04-28T14:54:36.219Z,12.20
2023-04-28T14:59:39.489Z,12.40
2023-04-28T15:04:44.702Z,12.40
2023-04-28T15:09:48.151Z,12.40
2023-04-28T15:14:53.678Z,12.30
2023-04-28T15:20:00.779Z,12.20
2023-04-28T15:25:04.213Z,12.10
2023-04-28T15:30:10.053Z,12.20
2023-04-28T15:35:14.875Z,12.20
2023-04-28T15:40:19.394Z,12.10
2023-04-28T15:45:23.486Z,12.10
2023-04-28T15:50:28.283Z,12.20
2023-04-28T15:55:31.695Z,12.20
2023-04-28T16:00:35.198Z,12.10
2023-04-28T16:05:40.225Z,12.10
2023-04-28T16:10:44.184Z,10.90
2023-04-28T16:15:49.981Z,12.10
2023-04-28T16:20:55.164Z,12.10
2023-04-28T16:25:59.016Z,12.10
2023-04-28T16:31:02.363Z,12.00
2023-04-28T16:36:08.709Z,12.20
2023-04-28T16:41:12.417Z,12.20
2023-04-28T16:46:16.250Z,12.10
2023-04-28T16:51:22.194Z,12.20
2023-04-28T16:56:25.975Z,12.20
2023-04-28T17:01:30.622Z,11.80
2023-04-28T17:06:36.704Z,12.30
2023-04-28T17:11:40.465Z,12.20
2023-04-28T17:16:44.934Z,12.20
2023-04-28T17:21:52.897Z,12.00
2023-04-28T17:26:56.420Z,12.00
2023-04-28T17:31:59.715Z,11.90
2023-04-28T17:37:04.889Z,11.80
2023-04-28T17:42:09.163Z,11.90
2023-04-28T17:47:14.107Z,11.90
2023-04-28T17:52:20.819Z,11.90
2023-04-28T17:57:24.213Z,11.90
2023-04-28T18:02:27.740Z,11.70
2023-04-28T18:07:32.700Z,11.60
2023-04-28T18:12:36.294Z,11.50
2023-04-28T18:17:39.707Z,11.60
2023-04-28T18:22:44.577Z,11.50
2023-04-28T18:27:47.904Z,11.50
2023-04-28T18:32:52.271Z,11.50
2023-04-28T18:37:57.203Z,11.50
2023-04-28T18:43:02.135Z,11.40
2023-04-28T18:48:06.057Z,11.30
2023-04-28T18:53:11.852Z,11.40
2023-04-28T18:58:15.738Z,11.30
2023-04-28T19:03:19.325Z,10.20
2023-04-28T19:08:24.490Z,11.40
2023-04-28T19:13:27.835Z,11.50
2023-04-28T19:18:32.004Z,11.40
2023-04-28T19:23:36.744Z,11.30
2023-04-28T19:28:40.142Z,11.30
2023-04-28T19:33:45.640Z,11.40
2023-04-28T19:38:51.662Z,11.30
2023-04-28T19:43:55.805Z,11.40
2023-04-28T19:48:59.275Z,14.10
2023-04-28T19:54:04.009Z,11.30
2023-04-28T19:59:07.356Z,11.30
2023-04-28T20:04:10.976Z,11.30
2023-04-28T20:09:16.695Z,11.50
2023-04-28T20:14:21.621Z,11.40
2023-04-28T20:19:25.542Z,11.20
2023-04-28T20:24:30.302Z,11.00
2023-04-28T20:29:37.147Z,10.90
2023-04-28T20:34:41.387Z,10.70
2023-04-28T20:39:47.295Z,10.50
2023-04-28T20:44:51.957Z,10.30
2023-04-28T20:49:55.339Z,10.20
2023-04-28T20:55:00.492Z,10.00
2023-04-28T21:00:04.572Z,10.00
2023-04-28T21:05:08.992Z,10.00
2023-04-28T21:10:14.196Z,9.90
2023-04-28T21:15:17.704Z,9.70
2023-04-28T21:20:21.258Z,9.60
2023-04-28T21:25:26.362Z,9.60
2023-04-28T21:30:30.129Z,10.70
2023-04-28T21:35:33.476Z,9.30
2023-04-28T21:40:38.281Z,9.50
2023-04-28T21:45:41.849Z,9.90
2023-04-28T21:50:45.515Z,9.20
2023-04-28T21:55:50.398Z,10.30
2023-04-28T22:00:54.954Z,10.40
2023-04-28T22:05:59.022Z,10.40
2023-04-28T22:11:04.176Z,10.50
2023-04-28T22:16:07.938Z,7.40
2023-04-28T22:21:13.739Z,10.40
2023-04-28T22:26:19.285Z,10.40
2023-04-28T22:31:22.764Z,10.40
2023-04-28T22:36:26.190Z,10.50
2023-04-28T22:41:31.072Z,10.50
2023-04-28T22:46:34.771Z,10.50
2023-04-28T22:51:38.199Z,10.50
2023-04-28T22:56:42.951Z,10.50
2023-04-28T23:01:46.413Z,10.50
2023-04-28T23:06:49.912Z,10.60
2023-04-28T23:11:54.854Z,10.60
2023-04-28T23:16:58.538Z,10.50
2023-04-28T23:22:01.941Z,10.60
2023-04-28T23:27:06.896Z,10.60
2023-04-28T23:32:10.382Z,10.70
2023-04-28T23:37:13.757Z,10.70
2023-04-28T23:42:21.220Z,10.70
2023-04-28T23:47:24.704Z,10.80
2023-04-28T23:52:28.074Z,10.80
2023-04-28T23:57:32.752Z,10.80
